Time;durP1;ratioP1;P1;durP2;ratioP2;P2;SDS_P1;SDS_P2;PMS_P1;PMS_P2;Temp;Humidity;BMP_temperature;BMP_pressure;BME280_temperature;BME280_humidity;BME280_pressure;Samples;Min_cycle;Max_cycle;Signal;HPM_P1;HPM_P2
2022/03/09 00:02:13;;;;;;;3.33;2.60;;;-0.40;84.10;;;;;;5072813;28;21020;-47
2022/03/09 00:04:40;;;;;;;3.27;2.40;;;-0.40;83.00;;;;;;5072904;28;20519;-47
2022/03/09 00:07:07;;;;;;;3.17;2.80;;;-0.40;83.00;;;;;;5072945;28;20524;-47
2022/03/09 00:09:34;;;;;;;2.77;2.30;;;-0.60;82.60;;;;;;5072832;28;20482;-47
2022/03/09 00:12:02;;;;;;;3.80;2.67;;;-0.40;84.80;;;;;;5072702;28;20460;-47
2022/03/09 00:14:29;;;;;;;3.13;2.70;;;-0.30;84.20;;;;;;5072740;28;20540;-47
2022/03/09 00:16:56;;;;;;;3.03;1.90;;;-0.30;82.50;;;;;;5072966;28;20468;-47
2022/03/09 00:19:25;;;;;;;3.07;1.83;;;-0.40;83.40;;;;;;5072009;28;20486;-47
2022/03/09 00:21:52;;;;;;;3.30;2.90;;;-0.50;83.70;;;;;;5072508;28;20990;-47
2022/03/09 00:24:19;;;;;;;3.17;2.30;;;-0.70;85.00;;;;;;5072589;28;20940;-47
2022/03/09 00:26:46;;;;;;;3.20;2.70;;;-0.80;85.30;;;;;;5072552;28;20964;-47
2022/03/09 00:29:13;;;;;;;3.10;2.57;;;-1.00;84.50;;;;;;5072434;28;20444;-47
2022/03/09 00:31:40;;;;;;;2.57;2.20;;;-0.70;85.60;;;;;;5072343;28;20491;-47
2022/03/09 00:34:07;;;;;;;2.87;2.57;;;-0.80;85.00;;;;;;5072422;28;20555;-47
2022/03/09 00:36:36;;;;;;;2.63;2.27;;;-1.00;84.20;;;;;;5071765;28;20530;-47
2022/03/09 00:39:03;;;;;;;3.80;2.37;;;-1.00;85.10;;;;;;5072175;28;20527;-48
2022/03/09 00:41:30;;;;;;;3.50;2.70;;;-1.00;85.30;;;;;;5072486;28;20499;-47
2022/03/09 00:43:57;;;;;;;3.00;2.43;;;-1.30;84.60;;;;;;5072301;28;20532;-48
2022/03/09 00:46:24;;;;;;;5.60;2.50;;;-1.40;85.10;;;;;;5072273;28;20476;-47
2022/03/09 00:48:51;;;;;;;3.20;2.50;;;-1.40;85.90;;;;;;5072404;28;20475;-47
2022/03/09 00:51:18;;;;;;;4.23;2.77;;;-1.50;86.00;;;;;;5133478;22;20952;-46
2022/03/09 00:53:46;;;;;;;2.73;2.53;;;-1.60;85.80;;;;;;5092435;28;20918;-45
2022/03/09 00:56:14;;;;;;;3.90;2.57;;;-1.30;87.20;;;;;;5092145;28;20445;-45
2022/03/09 00:58:41;;;;;;;3.13;2.70;;;-0.90;87.00;;;;;;5092213;28;20449;-45
2022/03/09 01:01:09;;;;;;;3.40;2.57;;;-0.70;85.70;;;;;;5091870;28;20497;-45
2022/03/09 01:03:36;;;;;;;2.87;2.57;;;-0.60;84.60;;;;;;5091910;28;20472;-45
2022/03/09 01:06:04;;;;;;;2.57;2.30;;;-0.50;84.30;;;;;;5092418;28;20476;-45
2022/03/09 01:08:31;;;;;;;3.97;2.77;;;-0.60;83.70;;;;;;5092205;28;20481;-46
2022/03/09 01:10:59;;;;;;;2.80;2.03;;;-0.60;83.60;;;;;;5091727;28;20486;-45
2022/03/09 01:13:26;;;;;;;3.27;2.60;;;-0.50;84.30;;;;;;5091833;28;20477;-45
2022/03/09 01:15:54;;;;;;;2.90;2.53;;;-0.70;85.40;;;;;;5092120;28;20471;-47
2022/03/09 01:18:21;;;;;;;5.07;2.60;;;-0.50;85.20;;;;;;5091857;28;20457;-45
2022/03/09 01:20:48;;;;;;;2.23;2.03;;;-0.50;84.40;;;;;;5091722;28;20476;-45
2022/03/09 01:23:15;;;;;;;4.13;2.00;;;-0.90;83.30;;;;;;5091832;28;20475;-45
2022/03/09 01:25:42;;;;;;;2.57;2.37;;;-1.00;84.10;;;;;;5091719;28;20525;-45
2022/03/09 01:28:11;;;;;;;2.47;2.10;;;-0.90;84.90;;;;;;5091710;28;20481;-45
2022/03/09 01:30:38;;;;;;;2.27;2.07;;;-0.90;84.80;;;;;;5091035;28;20474;-45
2022/03/09 01:33:05;;;;;;;2.30;1.77;;;-0.70;84.80;;;;;;5091201;28;20500;-44
2022/03/09 01:35:32;;;;;;;3.40;2.00;;;-0.60;84.30;;;;;;5091541;28;20566;-45
2022/03/09 01:37:59;;;;;;;2.33;2.13;;;-0.80;83.10;;;;;;5091355;28;20970;-45
2022/03/09 01:40:26;;;;;;;3.03;2.30;;;-0.90;83.60;;;;;;5091428;28;20474;-46
2022/03/09 01:42:53;;;;;;;2.90;2.60;;;-1.10;83.30;;;;;;5091484;28;20806;-44
2022/03/09 01:45:21;;;;;;;3.00;2.27;;;-1.00;83.70;;;;;;5091634;28;20946;-45
2022/03/09 01:47:49;;;;;;;5.53;3.20;;;-0.70;84.40;;;;;;5091648;28;20480;-44
2022/03/09 01:50:16;;;;;;;3.53;3.23;;;-0.60;83.80;;;;;;5091235;28;20531;-46
2022/03/09 01:52:44;;;;;;;2.90;2.43;;;-0.60;82.90;;;;;;5091298;28;20912;-45
2022/03/09 01:55:12;;;;;;;3.93;2.13;;;-0.90;83.50;;;;;;5091427;28;20569;-45
2022/03/09 01:57:40;;;;;;;2.33;2.03;;;-1.10;84.00;;;;;;5091570;28;20475;-45
2022/03/09 02:00:09;;;;;;;2.90;2.47;;;-1.60;83.50;;;;;;5091278;28;20449;-45
2022/03/09 02:02:37;;;;;;;5.20;2.30;;;-1.80;84.90;;;;;;5091193;28;20531;-45
2022/03/09 02:05:05;;;;;;;3.40;2.43;;;-1.70;86.10;;;;;;5091174;28;20910;-45
2022/03/09 02:10:20;;;;;;;1.90;1.80;;;-2.40;86.90;;;;;;5091245;28;20425;-45
2022/03/09 02:12:47;;;;;;;3.80;2.30;;;-2.60;87.50;;;;;;5091080;28;20456;-48
2022/03/09 02:15:13;;;;;;;2.03;1.90;;;-2.60;87.50;;;;;;5091116;28;20571;-45
2022/03/09 02:17:42;;;;;;;2.37;2.10;;;-2.50;87.70;;;;;;5091064;28;20511;-46
2022/03/09 02:20:10;;;;;;;2.13;2.03;;;-2.40;88.30;;;;;;5090935;28;20440;-45
2022/03/09 02:22:39;;;;;;;2.37;2.00;;;-2.00;89.50;;;;;;5090937;28;20982;-45
2022/03/09 02:25:08;;;;;;;2.33;2.10;;;-1.70;87.00;;;;;;5091279;28;20474;-44
2022/03/09 02:27:36;;;;;;;2.93;1.80;;;-1.40;85.80;;;;;;5091098;28;20441;-45
2022/03/09 02:30:04;;;;;;;2.40;1.73;;;-1.20;84.80;;;;;;5090622;28;20541;-45
2022/03/09 02:32:31;;;;;;;2.60;1.77;;;-1.30;84.50;;;;;;5090889;28;20498;-46
2022/03/09 02:34:57;;;;;;;2.60;2.00;;;-1.30;85.10;;;;;;5090822;28;20508;-45
2022/03/09 02:37:25;;;;;;;2.20;2.00;;;-1.10;84.80;;;;;;5091190;28;20746;-45
2022/03/09 02:39:53;;;;;;;2.20;1.93;;;-1.10;84.70;;;;;;5090996;28;20471;-45
2022/03/09 02:42:20;;;;;;;4.23;2.67;;;-1.30;84.30;;;;;;5090947;28;20495;-45
2022/03/09 02:44:47;;;;;;;5.30;3.03;;;-1.50;83.70;;;;;;5094314;28;20469;-44
2022/03/09 02:47:14;;;;;;;2.83;2.43;;;-1.80;85.30;;;;;;5095021;28;20439;-45
2022/03/09 02:49:41;;;;;;;2.43;2.23;;;-2.00;86.30;;;;;;5094168;28;21003;-45
2022/03/09 02:52:07;;;;;;;2.07;1.97;;;-2.00;87.20;;;;;;5094532;28;20499;-46
2022/03/09 02:54:34;;;;;;;2.77;2.50;;;-2.00;86.70;;;;;;5094310;28;20561;-45
2022/03/09 02:57:03;;;;;;;3.77;1.93;;;-2.20;86.20;;;;;;5094488;28;20963;-46
2022/03/09 02:59:30;;;;;;;2.50;2.20;;;-2.20;86.40;;;;;;5094184;28;20480;-46
2022/03/09 03:01:57;;;;;;;2.40;1.67;;;-2.20;86.50;;;;;;5094612;28;20521;-45
2022/03/09 03:04:24;;;;;;;2.20;2.00;;;-2.40;86.40;;;;;;5094428;28;20469;-46
2022/03/09 03:06:51;;;;;;;2.63;2.40;;;-2.30;87.30;;;;;;5094275;28;20528;-45
2022/03/09 03:09:18;;;;;;;2.43;2.20;;;-2.10;87.40;;;;;;5093978;28;20470;-44
2022/03/09 03:11:44;;;;;;;2.23;1.73;;;-1.90;87.20;;;;;;5094382;28;20494;-46
2022/03/09 03:14:13;;;;;;;2.60;1.50;;;-1.60;87.70;;;;;;5094066;28;21046;-46
2022/03/09 03:16:40;;;;;;;2.10;1.90;;;-1.60;86.80;;;;;;5094206;28;20473;-45
2022/03/09 03:19:07;;;;;;;3.00;2.00;;;-1.50;86.10;;;;;;5094493;28;20470;-44
2022/03/09 03:21:34;;;;;;;2.13;1.90;;;-1.40;85.50;;;;;;5093650;28;20541;-45
2022/03/09 03:24:01;;;;;;;2.30;1.80;;;-1.40;85.30;;;;;;5093936;28;20537;-45
2022/03/09 03:26:28;;;;;;;3.43;1.97;;;-1.40;84.70;;;;;;5094277;28;20434;-45
2022/03/09 03:28:55;;;;;;;2.00;1.80;;;-1.60;83.80;;;;;;5093914;28;20453;-45
2022/03/09 03:31:23;;;;;;;1.73;1.63;;;-1.40;84.90;;;;;;5093792;28;20501;-45
2022/03/09 03:33:50;;;;;;;2.33;2.10;;;-1.40;84.70;;;;;;5093705;28;20474;-45
2022/03/09 03:36:18;;;;;;;2.90;2.20;;;-1.30;84.90;;;;;;5093671;28;20524;-45
2022/03/09 03:38:45;;;;;;;2.80;2.10;;;-1.40;84.90;;;;;;5093570;28;20533;-45
2022/03/09 03:41:11;;;;;;;1.60;1.50;;;-1.40;85.30;;;;;;5093403;28;20493;-44
2022/03/09 03:43:38;;;;;;;1.47;1.37;;;-1.40;85.30;;;;;;5093701;28;20474;-47
2022/03/09 03:46:05;;;;;;;2.30;2.10;;;-1.40;85.30;;;;;;5094072;28;20525;-44
2022/03/09 03:48:34;;;;;;;2.07;1.97;;;-1.30;86.50;;;;;;5093511;28;20470;-44
2022/03/09 03:51:01;;;;;;;1.70;1.50;;;-1.10;86.20;;;;;;5092910;28;20477;-47
2022/03/09 03:53:28;;;;;;;2.87;2.10;;;-1.30;84.10;;;;;;5093490;28;20892;-45
2022/03/09 03:55:54;;;;;;;2.00;1.70;;;-1.50;83.90;;;;;;5092606;28;20590;-44
2022/03/09 03:58:22;;;;;;;2.43;1.50;;;-1.20;85.20;;;;;;5093344;28;20474;-45
2022/03/09 04:00:48;;;;;;;2.13;2.03;;;-1.10;85.00;;;;;;5093025;28;20624;-46
2022/03/09 04:03:15;;;;;;;2.70;2.13;;;-1.30;84.10;;;;;;5093132;28;20982;-46
2022/03/09 04:05:44;;;;;;;2.47;2.03;;;-1.50;84.30;;;;;;5093290;28;20464;-45
2022/03/09 04:08:10;;;;;;;2.47;2.27;;;-1.40;84.90;;;;;;5093368;28;20468;-46
2022/03/09 04:10:37;;;;;;;2.70;2.00;;;-2.00;84.10;;;;;;5092819;28;20947;-44
2022/03/09 04:13:04;;;;;;;2.70;2.20;;;-2.50;84.80;;;;;;5093007;28;20551;-44
2022/03/09 04:15:32;;;;;;;4.50;2.30;;;-2.40;86.50;;;;;;5092808;28;20511;-44
2022/03/09 04:17:59;;;;;;;1.93;1.77;;;-2.10;87.40;;;;;;5093243;28;20448;-45
2022/03/09 04:20:27;;;;;;;4.13;3.47;;;-2.00;86.60;;;;;;5092986;28;20866;-44
2022/03/09 04:22:55;;;;;;;10.90;4.80;;;-2.00;87.10;;;;;;5092931;28;20544;-45
2022/03/09 04:25:22;;;;;;;3.00;2.13;;;-2.00;89.60;;;;;;5093039;28;20995;-45
2022/03/09 04:27:49;;;;;;;3.20;2.43;;;-1.80;88.80;;;;;;5092765;28;20474;-44
2022/03/09 04:30:16;;;;;;;2.40;2.20;;;-1.60;87.20;;;;;;5092379;28;20488;-45
2022/03/09 04:32:43;;;;;;;1.70;1.60;;;-1.70;86.20;;;;;;5092767;28;20966;-45
2022/03/09 04:35:10;;;;;;;2.13;1.60;;;-2.20;84.40;;;;;;5092602;28;20565;-45
2022/03/09 04:37:37;;;;;;;1.70;1.60;;;-2.40;85.70;;;;;;5092746;28;20473;-45
2022/03/09 04:40:07;;;;;;;3.17;2.30;;;-2.50;85.30;;;;;;5092295;28;20476;-44
2022/03/09 04:42:34;;;;;;;3.50;3.00;;;-2.50;86.10;;;;;;5092514;28;20889;-45
2022/03/09 04:45:02;;;;;;;3.23;2.93;;;-2.20;86.70;;;;;;5092811;28;20520;-45
2022/03/09 04:47:28;;;;;;;3.00;2.17;;;-2.20;85.90;;;;;;5092485;28;20536;-45
2022/03/09 04:49:56;;;;;;;2.80;1.60;;;-2.30;85.90;;;;;;5091735;28;20485;-45
2022/03/09 04:52:23;;;;;;;1.30;1.20;;;-2.40;85.40;;;;;;5092146;28;21050;-46
2022/03/09 04:54:49;;;;;;;1.67;1.30;;;-2.60;85.20;;;;;;5091748;28;20566;-45
2022/03/09 04:57:18;;;;;;;1.60;1.50;;;-2.70;85.60;;;;;;5092303;28;20468;-45
2022/03/09 04:59:45;;;;;;;1.77;1.67;;;-2.50;86.70;;;;;;5092023;28;20446;-45
2022/03/09 05:02:13;;;;;;;2.80;1.70;;;-2.30;86.80;;;;;;5091978;28;21042;-46
2022/03/09 05:04:40;;;;;;;2.43;1.73;;;-2.20;86.30;;;;;;5092209;28;20440;-45
2022/03/09 05:07:07;;;;;;;2.03;1.93;;;-2.20;85.90;;;;;;5092035;28;20478;-44
2022/03/09 05:09:34;;;;;;;2.67;2.47;;;-1.90;86.40;;;;;;5091661;28;20476;-47
2022/03/09 05:12:02;;;;;;;2.27;1.83;;;-1.70;85.20;;;;;;5092012;28;20508;-45
2022/03/09 05:14:30;;;;;;;2.87;1.83;;;-1.60;84.00;;;;;;5092084;28;20573;-44
2022/03/09 05:16:57;;;;;;;2.23;1.80;;;-1.50;85.10;;;;;;5092080;28;20473;-45
2022/03/09 05:19:24;;;;;;;2.00;1.90;;;-1.40;83.90;;;;;;5091526;28;20472;-45
2022/03/09 05:21:51;;;;;;;1.73;1.63;;;-1.40;83.90;;;;;;5091526;28;20497;-45
2022/03/09 05:24:19;;;;;;;1.43;1.33;;;-1.70;84.90;;;;;;5092160;28;20479;-45
2022/03/09 05:26:47;;;;;;;2.30;1.57;;;-1.40;85.10;;;;;;5091533;28;20795;-46
2022/03/09 05:29:14;;;;;;;1.77;1.40;;;-1.40;84.80;;;;;;5091756;28;20836;-45
2022/03/09 05:31:44;;;;;;;1.60;1.50;;;-1.60;84.50;;;;;;5091717;28;20508;-45
2022/03/09 05:34:11;;;;;;;2.10;1.40;;;-1.80;84.30;;;;;;5091514;28;20536;-45
2022/03/09 05:36:38;;;;;;;3.40;1.97;;;-1.90;84.30;;;;;;5091828;28;20520;-44
2022/03/09 05:39:06;;;;;;;2.80;2.50;;;-1.80;84.50;;;;;;5091521;28;20479;-44
2022/03/09 05:41:34;;;;;;;3.33;2.60;;;-2.00;84.10;;;;;;5091350;28;20571;-45
2022/03/09 05:44:02;;;;;;;2.93;2.60;;;-2.00;85.20;;;;;;5091721;28;20818;-45
2022/03/09 05:46:30;;;;;;;4.20;3.80;;;-2.20;85.80;;;;;;5091616;28;20447;-45
2022/03/09 05:48:58;;;;;;;4.90;3.60;;;-2.30;87.50;;;;;;5091238;28;20954;-45
2022/03/09 05:51:25;;;;;;;3.50;3.20;;;-2.50;88.30;;;;;;5091259;28;20560;-45
2022/03/09 05:53:52;;;;;;;3.50;2.50;;;-2.40;89.30;;;;;;5091212;28;20752;-44
2022/03/09 05:56:19;;;;;;;2.40;1.70;;;-2.50;87.60;;;;;;5091286;28;20505;-45
2022/03/09 05:58:46;;;;;;;2.10;2.00;;;-2.50;87.60;;;;;;5091324;28;20469;-45
2022/03/09 06:01:13;;;;;;;3.50;2.90;;;-2.50;87.40;;;;;;5091236;28;20499;-45
2022/03/09 06:03:40;;;;;;;3.47;3.07;;;-2.40;87.10;;;;;;5091495;28;20483;-44
2022/03/09 06:06:08;;;;;;;5.03;3.33;;;-2.20;87.40;;;;;;5091614;28;20473;-45
2022/03/09 06:08:35;;;;;;;3.90;3.50;;;-1.90;87.60;;;;;;5091382;28;20534;-46
2022/03/09 06:11:02;;;;;;;4.70;3.10;;;-1.80;87.20;;;;;;5091024;28;20473;-45
2022/03/09 06:13:29;;;;;;;2.43;2.23;;;-1.70;86.50;;;;;;5091192;28;20483;-45
2022/03/09 06:15:56;;;;;;;7.10;6.43;;;-1.60;86.20;;;;;;5091080;28;21045;-45
2022/03/09 06:18:23;;;;;;;5.87;4.10;;;-1.50;86.30;;;;;;5093374;28;20481;-45
2022/03/09 06:20:50;;;;;;;5.03;4.13;;;-1.60;86.00;;;;;;5094846;28;20970;-45
2022/03/09 06:23:19;;;;;;;8.57;5.87;;;-1.60;85.80;;;;;;5095252;28;20443;-45
2022/03/09 06:25:46;;;;;;;3.47;3.17;;;-1.80;83.90;;;;;;5095121;28;20474;-45
2022/03/09 06:28:13;;;;;;;5.53;3.33;;;-2.10;84.50;;;;;;5094859;28;20976;-45
2022/03/09 06:30:41;;;;;;;3.20;2.67;;;-2.20;85.30;;;;;;5095057;28;20476;-45
2022/03/09 06:33:08;;;;;;;2.60;2.07;;;-2.20;86.00;;;;;;5094899;28;20496;-44
2022/03/09 06:35:35;;;;;;;4.13;3.13;;;-2.30;86.00;;;;;;5094781;28;20509;-46
2022/03/09 06:38:02;;;;;;;6.33;4.90;;;-2.30;86.60;;;;;;5095104;28;20524;-45
2022/03/09 06:40:30;;;;;;;6.23;5.30;;;-2.10;86.70;;;;;;5094504;28;20497;-45
2022/03/09 06:42:59;;;;;;;5.30;4.60;;;-2.00;86.20;;;;;;5094588;28;20554;-46
2022/03/09 06:45:26;;;;;;;3.83;3.47;;;-1.90;86.00;;;;;;5095099;28;20436;-45
2022/03/09 06:47:53;;;;;;;5.60;3.77;;;-1.80;86.10;;;;;;5094767;28;20491;-45
2022/03/09 06:50:20;;;;;;;4.00;3.57;;;-1.90;84.60;;;;;;5093830;28;20481;-47
2022/03/09 06:52:47;;;;;;;9.30;8.40;;;-2.10;86.10;;;;;;5150440;22;20519;-47
2022/03/09 06:55:14;;;;;;;10.23;9.20;;;-2.10;87.00;;;;;;5094387;28;20470;-47
2022/03/09 06:57:43;;;;;;;11.43;10.10;;;-2.00;86.70;;;;;;5094741;28;20479;-47
2022/03/09 07:00:12;;;;;;;7.30;6.57;;;-2.10;86.90;;;;;;5094366;28;20488;-47
2022/03/09 07:02:40;;;;;;;6.27;5.77;;;-2.20;86.60;;;;;;5094332;28;20492;-48
2022/03/09 07:05:08;;;;;;;5.80;5.20;;;-1.90;88.20;;;;;;5094280;28;20457;-47
2022/03/09 07:07:36;;;;;;;6.03;5.43;;;-1.70;88.00;;;;;;5094316;28;20491;-49
2022/03/09 07:10:03;;;;;;;5.23;3.67;;;-1.50;86.60;;;;;;5094290;28;20495;-46
2022/03/09 07:12:30;;;;;;;3.53;3.23;;;-1.50;85.90;;;;;;5094146;28;21041;-47
2022/03/09 07:14:58;;;;;;;3.80;3.50;;;-1.60;85.10;;;;;;5094272;28;20507;-47
2022/03/09 07:17:25;;;;;;;3.10;2.80;;;-1.60;85.80;;;;;;5094145;28;20528;-47
2022/03/09 07:19:52;;;;;;;3.20;3.00;;;-1.80;85.90;;;;;;5093788;28;20501;-49
2022/03/09 07:22:18;;;;;;;3.67;2.53;;;-1.70;86.30;;;;;;5094196;28;20497;-47
2022/03/09 07:24:45;;;;;;;2.37;1.83;;;-1.60;87.00;;;;;;5094223;28;20488;-47
2022/03/09 07:27:12;;;;;;;4.03;1.87;;;-1.50;85.60;;;;;;5093091;28;20530;-51
2022/03/09 07:29:39;;;;;;;1.90;1.70;;;-1.40;84.70;;;;;;5092093;28;20484;-48
2022/03/09 07:32:11;;;;;;;2.10;1.90;;;-1.10;84.20;;;;;;5094064;28;20544;-47
2022/03/09 07:34:38;;;;;;;1.50;1.40;;;-1.00;83.80;;;;;;5093823;28;20449;-47
2022/03/09 07:37:05;;;;;;;4.73;1.63;;;-1.10;83.80;;;;;;5093851;28;20529;-50
2022/03/09 07:39:32;;;;;;;3.50;1.50;;;-1.10;83.80;;;;;;5093246;28;20488;-47
2022/03/09 07:41:59;;;;;;;1.33;1.23;;;-1.30;84.30;;;;;;5092746;28;20499;-47
2022/03/09 07:44:27;;;;;;;2.00;1.80;;;-1.40;83.80;;;;;;5093451;28;20477;-47
2022/03/09 07:46:54;;;;;;;4.83;2.10;;;-1.40;84.80;;;;;;5093659;28;20470;-50
2022/03/09 07:49:23;;;;;;;1.97;1.87;;;-1.60;83.70;;;;;;5093085;28;20446;-48
2022/03/09 07:51:50;;;;;;;15.50;10.20;;;-1.80;84.60;;;;;;5093075;28;20469;-49
2022/03/09 07:54:17;;;;;;;14.97;8.80;;;-1.80;85.20;;;;;;5093386;28;20442;-46
2022/03/09 07:56:45;;;;;;;8.87;6.50;;;-1.90;84.90;;;;;;5092956;28;20535;-47
2022/03/09 07:59:12;;;;;;;9.40;7.00;;;-2.30;84.60;;;;;;5093031;28;20483;-47
2022/03/09 08:01:40;;;;;;;6.23;4.20;;;-2.40;84.80;;;;;;5093547;28;21037;-46
2022/03/09 08:04:08;;;;;;;6.20;4.20;;;-2.60;84.70;;;;;;5093445;28;20460;-47
2022/03/09 08:06:38;;;;;;;4.17;3.83;;;-2.40;86.60;;;;;;5093443;28;20466;-47
2022/03/09 08:09:05;;;;;;;4.23;2.50;;;-2.10;87.40;;;;;;5093017;28;20508;-48
2022/03/09 08:11:32;;;;;;;2.60;2.13;;;-2.00;87.00;;;;;;5093273;28;20533;-47
2022/03/09 08:14:00;;;;;;;1.87;1.70;;;-2.30;85.00;;;;;;5092807;28;20491;-47
2022/03/09 08:16:26;;;;;;;2.10;1.90;;;-2.20;86.30;;;;;;5093226;28;20529;-47
2022/03/09 08:18:53;;;;;;;2.10;1.60;;;-2.00;87.10;;;;;;5092738;28;20483;-47
2022/03/09 08:21:20;;;;;;;2.80;1.90;;;-1.80;87.60;;;;;;5091325;28;20531;-47
2022/03/09 08:23:48;;;;;;;4.40;3.10;;;-1.60;88.60;;;;;;5091037;28;20485;-47
2022/03/09 08:26:15;;;;;;;14.97;7.40;;;-1.30;89.00;;;;;;5091202;28;20520;-47
2022/03/09 08:28:43;;;;;;;11.73;6.37;;;-1.10;90.20;;;;;;5091340;28;20496;-48
2022/03/09 08:31:10;;;;;;;10.47;6.57;;;-1.10;91.20;;;;;;5091891;28;20469;-47
2022/03/09 08:33:37;;;;;;;9.90;5.57;;;-1.10;90.70;;;;;;5092724;28;20497;-49
2022/03/09 08:36:04;;;;;;;4.73;4.00;;;-1.10;91.00;;;;;;5092553;28;20557;-47
2022/03/09 08:38:31;;;;;;;5.30;3.27;;;-1.00;91.10;;;;;;5092314;28;20478;-48
2022/03/09 08:40:59;;;;;;;2.50;2.30;;;-1.00;90.00;;;;;;5091877;28;20872;-47
2022/03/09 08:43:26;;;;;;;3.30;2.23;;;-1.00;87.80;;;;;;5092491;28;20899;-47
2022/03/09 08:45:53;;;;;;;3.20;2.17;;;-0.90;84.40;;;;;;5091561;28;20482;-47
2022/03/09 08:48:20;;;;;;;2.87;2.47;;;-0.80;81.90;;;;;;5092093;28;20476;-47
2022/03/09 08:50:47;;;;;;;3.47;2.47;;;-0.70;81.50;;;;;;5092077;28;20421;-47
2022/03/09 08:53:16;;;;;;;3.40;2.17;;;-0.60;80.40;;;;;;5091157;28;20913;-47
2022/03/09 08:55:42;;;;;;;2.63;2.43;;;-0.50;80.10;;;;;;5090582;28;20550;-47
2022/03/09 08:58:11;;;;;;;4.20;3.03;;;-0.40;79.10;;;;;;5090819;28;20481;-46
2022/03/09 09:00:38;;;;;;;4.70;3.90;;;-0.40;80.40;;;;;;5091926;28;20451;-47
2022/03/09 09:03:05;;;;;;;4.13;3.40;;;-0.30;82.10;;;;;;5092149;28;20499;-46
2022/03/09 09:05:32;;;;;;;5.27;4.13;;;-0.30;81.20;;;;;;5092193;28;20477;-47
2022/03/09 09:08:00;;;;;;;4.60;4.17;;;-0.20;83.10;;;;;;5092000;28;20475;-48
2022/03/09 09:10:27;;;;;;;4.63;3.93;;;-0.10;82.90;;;;;;5091697;28;20454;-47
2022/03/09 09:12:57;;;;;;;3.67;3.10;;;0.00;82.30;;;;;;5091294;28;20915;-47
2022/03/09 09:15:26;;;;;;;3.97;3.67;;;0.10;81.40;;;;;;5090071;28;20490;-47
2022/03/09 09:17:57;;;;;;;4.93;3.70;;;0.30;81.90;;;;;;5090507;28;20570;-50
2022/03/09 09:20:25;;;;;;;3.40;3.10;;;0.40;82.50;;;;;;5090039;28;20446;-47
2022/03/09 09:22:53;;;;;;;3.80;3.37;;;0.50;81.90;;;;;;5090352;28;20536;-47
2022/03/09 09:25:20;;;;;;;3.70;3.17;;;0.60;80.50;;;;;;5090265;28;20471;-47
2022/03/09 09:27:47;;;;;;;3.30;3.00;;;0.80;81.00;;;;;;5090639;28;20565;-47
2022/03/09 09:30:14;;;;;;;4.63;2.50;;;1.00;79.00;;;;;;5091595;28;20470;-47
2022/03/09 09:32:42;;;;;;;4.43;2.73;;;1.10;79.00;;;;;;5091914;28;20504;-47
2022/03/09 09:35:11;;;;;;;4.13;3.17;;;1.20;81.10;;;;;;5091361;28;20876;-47
2022/03/09 09:37:39;;;;;;;4.57;4.17;;;1.40;82.00;;;;;;5091796;28;21220;-47
2022/03/09 09:40:08;;;;;;;4.07;3.50;;;1.50;84.50;;;;;;5091128;28;20530;-47
2022/03/09 09:42:35;;;;;;;5.43;3.70;;;1.60;85.90;;;;;;5091803;28;20474;-47
2022/03/09 09:45:03;;;;;;;4.00;3.60;;;1.80;86.40;;;;;;5091712;28;20483;-47
2022/03/09 09:47:30;;;;;;;5.70;3.67;;;1.90;85.60;;;;;;5091527;28;20463;-48
2022/03/09 09:49:59;;;;;;;7.30;3.23;;;2.00;89.90;;;;;;5090768;28;20475;-48
2022/03/09 09:52:26;;;;;;;4.17;3.20;;;2.20;85.90;;;;;;5090417;28;20992;-47
2022/03/09 09:54:56;;;;;;;2.90;2.57;;;2.40;83.00;;;;;;5091554;28;20492;-47
2022/03/09 09:57:23;;;;;;;3.77;2.83;;;2.60;82.40;;;;;;5091370;28;20508;-47
2022/03/09 09:59:50;;;;;;;4.63;2.83;;;2.80;82.10;;;;;;5091089;28;20476;-48
2022/03/09 10:02:17;;;;;;;3.10;2.67;;;3.00;83.60;;;;;;5091363;28;21037;-47
2022/03/09 10:04:46;;;;;;;3.50;2.70;;;3.10;83.80;;;;;;5091464;28;20478;-50
2022/03/09 10:07:15;;;;;;;3.67;2.30;;;3.30;82.60;;;;;;5091565;28;20535;-47
2022/03/09 10:09:42;;;;;;;3.47;2.30;;;3.50;79.80;;;;;;5091058;28;20533;-48
2022/03/09 10:12:13;;;;;;;3.60;2.83;;;3.70;79.00;;;;;;5090979;28;20490;-47
2022/03/09 10:14:42;;;;;;;3.10;2.43;;;3.80;76.70;;;;;;5091586;28;20447;-47
2022/03/09 10:17:10;;;;;;;3.27;2.97;;;4.00;76.70;;;;;;5091176;28;20485;-50
2022/03/09 10:19:39;;;;;;;4.53;3.23;;;4.10;75.40;;;;;;5090997;28;20478;-48
2022/03/09 10:22:26;;;;;;;2.87;2.20;;;4.20;75.50;;;;;;5091022;28;20548;-49
2022/03/09 10:24:55;;;;;;;4.23;2.70;;;4.40;75.10;;;;;;5091332;28;20466;-47
2022/03/09 10:27:35;;;;;;;3.03;1.80;;;4.50;74.90;;;;;;5091304;28;20462;-47
2022/03/09 10:30:03;;;;;;;2.30;2.10;;;4.60;74.20;;;;;;5090911;28;20980;-47
2022/03/09 10:32:46;;;;;;;3.03;2.10;;;4.70;73.60;;;;;;5090711;28;20498;-49
2022/03/09 10:35:15;;;;;;;2.50;2.00;;;4.70;74.10;;;;;;5091129;28;20470;-47
2022/03/09 10:37:46;;;;;;;8.63;5.20;;;4.90;72.70;;;;;;5089729;28;21080;-47
2022/03/09 10:40:15;;;;;;;2.83;2.30;;;5.10;71.70;;;;;;5090387;28;20478;-47
2022/03/09 10:42:42;;;;;;;6.43;2.83;;;5.10;71.20;;;;;;5090922;28;20546;-47
2022/03/09 10:45:10;;;;;;;3.07;2.33;;;5.20;69.60;;;;;;5090708;28;20475;-49
2022/03/09 10:47:40;;;;;;;2.60;2.40;;;5.20;67.10;;;;;;5090566;28;20891;-46
2022/03/09 10:50:18;;;;;;;3.67;2.50;;;5.30;68.40;;;;;;5090324;28;20474;-49
2022/03/09 10:52:49;;;;;;;2.30;2.10;;;5.40;66.90;;;;;;5090953;28;20942;-46
2022/03/09 10:55:24;;;;;;;2.60;2.10;;;5.30;63.00;;;;;;5090681;28;20450;-46
2022/03/09 10:57:52;;;;;;;3.30;2.37;;;5.30;66.50;;;;;;5090993;28;20514;-46
2022/03/09 11:00:38;;;;;;;2.73;2.53;;;5.40;67.70;;;;;;5090610;28;20473;-46
2022/03/09 11:03:07;;;;;;;2.50;2.30;;;5.60;67.00;;;;;;5090971;28;20456;-46
2022/03/09 11:05:34;;;;;;;2.43;2.23;;;5.70;69.40;;;;;;5094405;28;21016;-46
2022/03/09 11:08:04;;;;;;;14.30;4.80;;;5.80;67.10;;;;;;5094401;28;20514;-46
2022/03/09 11:10:31;;;;;;;4.23;2.83;;;5.90;67.90;;;;;;5093873;28;20928;-46
2022/03/09 11:12:58;;;;;;;2.90;2.50;;;5.90;68.00;;;;;;5094275;28;21029;-46
2022/03/09 11:15:26;;;;;;;2.70;2.23;;;6.00;68.20;;;;;;5094720;28;20442;-46
2022/03/09 11:17:54;;;;;;;3.07;2.47;;;6.10;70.50;;;;;;5094165;28;20475;-46
2022/03/09 11:20:21;;;;;;;6.40;3.03;;;6.20;69.10;;;;;;5093940;28;20479;-46
2022/03/09 11:22:48;;;;;;;2.87;2.20;;;6.30;66.90;;;;;;5093547;28;20544;-46
2022/03/09 11:25:17;;;;;;;3.93;2.30;;;6.30;67.90;;;;;;5094095;28;20522;-46
2022/03/09 11:27:49;;;;;;;4.20;2.17;;;6.30;66.80;;;;;;5094246;28;20489;-48
2022/03/09 11:30:27;;;;;;;3.93;2.83;;;6.20;69.60;;;;;;5093652;28;20439;-48
2022/03/09 11:32:55;;;;;;;1.97;1.87;;;6.10;71.80;;;;;;5093889;28;20487;-46
2022/03/09 11:35:36;;;;;;;4.00;2.10;;;5.90;69.30;;;;;;5093687;28;20443;-46
2022/03/09 11:38:24;;;;;;;2.77;2.27;;;5.80;63.60;;;;;;5093378;28;20816;-46
2022/03/09 11:41:23;;;;;;;1.93;1.73;;;5.70;63.20;;;;;;5092756;28;20471;-48
2022/03/09 11:43:50;;;;;;;2.43;2.23;;;5.40;74.70;;;;;;5084872;28;20457;-46
2022/03/09 11:46:18;;;;;;;2.87;2.30;;;5.40;70.50;;;;;;5093106;28;20477;-47
2022/03/09 11:48:53;;;;;;;3.03;2.73;;;5.50;64.20;;;;;;5083351;28;21002;-46
2022/03/09 11:51:21;;;;;;;4.00;2.50;;;5.80;67.80;;;;;;5077570;28;20456;-47
2022/03/09 11:53:51;;;;;;;3.30;2.60;;;6.10;62.70;;;;;;5073004;28;20472;-46
2022/03/09 11:56:32;;;;;;;5.33;2.40;;;6.20;65.30;;;;;;5073657;28;20544;-46
2022/03/09 11:59:09;;;;;;;2.30;2.10;;;6.10;62.50;;;;;;5072860;28;20479;-46
2022/03/09 12:02:15;;;;;;;3.40;2.47;;;6.10;63.90;;;;;;5073081;28;20496;-46
2022/03/09 12:04:50;;;;;;;3.13;2.63;;;6.00;67.90;;;;;;5073389;28;20483;-46
2022/03/09 12:07:50;;;;;;;4.63;2.57;;;6.10;68.60;;;;;;5073025;28;20444;-46
2022/03/09 12:10:18;;;;;;;3.30;2.63;;;6.20;69.50;;;;;;5009585;28;20521;-46
2022/03/09 12:13:13;;;;;;;3.77;2.93;;;6.20;72.20;;;;;;5058351;28;20472;-47
2022/03/09 12:16:12;;;;;;;3.10;2.80;;;6.50;71.20;;;;;;5070695;28;20444;-46
2022/03/09 12:18:42;;;;;;;2.57;2.17;;;6.60;69.80;;;;;;5071017;28;20530;-47
2022/03/09 12:21:10;;;;;;;2.50;2.30;;;6.70;65.70;;;;;;5070855;28;20476;-46
2022/03/09 12:24:29;;;;;;;4.23;2.40;;;6.70;59.00;;;;;;5071169;28;20807;-46
2022/03/09 12:26:56;;;;;;;6.57;2.00;;;6.60;59.60;;;;;;5072395;28;20479;-47
2022/03/09 12:29:42;;;;;;;2.47;2.27;;;6.70;62.50;;;;;;5072166;28;20464;-46
2022/03/09 12:32:13;;;;;;;4.40;2.80;;;6.70;65.80;;;;;;5072604;28;20516;-47
2022/03/09 12:34:42;;;;;;;2.30;2.10;;;6.70;69.80;;;;;;5072634;28;20444;-46
2022/03/09 12:37:13;;;;;;;3.50;2.40;;;6.70;74.60;;;;;;5071861;28;21050;-46
2022/03/09 12:39:40;;;;;;;3.30;3.00;;;7.00;66.80;;;;;;5072163;28;20469;-49
2022/03/09 12:42:08;;;;;;;2.50;2.30;;;7.20;66.80;;;;;;5072192;28;20498;-47
2022/03/09 12:44:36;;;;;;;3.93;2.50;;;7.30;66.50;;;;;;5072506;28;20472;-47
2022/03/09 12:47:06;;;;;;;4.00;2.63;;;7.20;64.70;;;;;;5072153;28;20440;-46
2022/03/09 12:49:38;;;;;;;6.70;2.37;;;7.10;74.60;;;;;;5071776;28;20464;-47
2022/03/09 12:52:10;;;;;;;3.37;2.83;;;7.00;61.20;;;;;;5073070;28;20499;-47
2022/03/09 12:54:40;;;;;;;4.03;2.50;;;7.10;63.90;;;;;;5072220;28;20471;-47
2022/03/09 12:57:13;;;;;;;2.20;1.93;;;7.10;63.00;;;;;;5072118;28;20536;-46
2022/03/09 12:59:41;;;;;;;2.50;2.27;;;7.20;63.40;;;;;;5071597;28;20786;-47
2022/03/09 13:02:09;;;;;;;6.30;2.43;;;7.30;59.70;;;;;;5072189;28;20492;-47